Time;durP1;ratioP1;P1;durP2;ratioP2;P2;SDS_P1;SDS_P2;PMS_P1;PMS_P2;Temp;Humidity;BMP_temperature;BMP_pressure;BME280_temperature;BME280_humidity;BME280_pressure;Samples;Min_cycle;Max_cycle;Signal;HPM_P1;HPM_P2
2022/03/28 00:01:14;;;;;;;20.13;11.50;;;;;;;7.07;69.63;102507.97;5057486;28;20033;-85
2022/03/28 00:03:39;;;;;;;17.88;9.32;;;;;;;7.05;70.24;102516.81;5057470;28;20043;-86
2022/03/28 00:06:07;;;;;;;22.10;10.85;;;;;;;6.98;70.07;102514.25;5063766;28;20029;-86
2022/03/28 00:08:33;;;;;;;23.33;11.20;;;;;;;6.90;71.00;102515.22;5060448;28;20040;-86
2022/03/28 00:10:59;;;;;;;22.75;11.75;;;;;;;6.86;71.24;102508.19;5054099;28;20513;-84
2022/03/28 00:13:24;;;;;;;19.10;10.27;;;;;;;6.78;71.35;102499.44;5052230;28;20052;-84
2022/03/28 00:15:49;;;;;;;21.48;10.27;;;;;;;6.77;71.61;102503.81;5050022;28;20052;-85
2022/03/28 00:18:14;;;;;;;24.85;11.25;;;;;;;6.74;71.47;102493.28;5053596;28;20033;-84
2022/03/28 00:20:40;;;;;;;21.50;11.43;;;;;;;6.69;71.23;102487.16;5053082;28;20120;-85
2022/03/28 00:23:06;;;;;;;23.52;11.68;;;;;;;6.70;71.09;102481.84;5052888;28;20029;-85
2022/03/28 00:25:31;;;;;;;28.90;10.98;;;;;;;6.66;71.69;102474.81;5045856;28;20013;-85
2022/03/28 00:27:57;;;;;;;27.25;12.52;;;;;;;6.62;72.46;102481.03;5050490;28;20025;-84
2022/03/28 00:30:23;;;;;;;24.98;11.00;;;;;;;6.61;72.13;102467.81;5050369;28;20036;-85
2022/03/28 00:32:48;;;;;;;24.00;11.80;;;;;;;6.62;72.03;102466.94;5051030;28;20029;-84
2022/03/28 00:35:13;;;;;;;21.88;10.93;;;;;;;6.63;71.99;102463.38;5052686;28;20111;-84
2022/03/28 00:37:41;;;;;;;24.73;11.98;;;;;;;6.63;72.07;102471.31;5052737;28;20051;-85
2022/03/28 00:40:07;;;;;;;21.48;11.10;;;;;;;6.54;72.88;102456.41;5048911;28;20570;-85
2022/03/28 00:42:33;;;;;;;18.88;11.18;;;;;;;6.44;73.59;102452.97;5053344;28;20021;-85
2022/03/28 00:44:58;;;;;;;22.50;10.93;;;;;;;6.38;73.65;102453.00;5051045;28;20033;-85
2022/03/28 00:47:23;;;;;;;22.92;11.25;;;;;;;6.40;73.18;102453.88;5046805;28;20029;-85
2022/03/28 00:49:48;;;;;;;20.88;11.20;;;;;;;6.35;73.75;102460.94;5050986;28;20048;-85
2022/03/28 00:52:14;;;;;;;22.42;11.10;;;;;;;6.25;73.86;102446.06;5052523;28;20573;-85
2022/03/28 00:54:40;;;;;;;22.60;11.23;;;;;;;6.26;73.98;102453.09;5053016;28;20036;-86
2022/03/28 00:57:06;;;;;;;23.80;11.05;;;;;;;6.23;73.63;102454.00;5050603;28;20672;-85
2022/03/28 00:59:32;;;;;;;21.17;10.63;;;;;;;6.15;74.30;102450.53;5050707;28;20029;-85
2022/03/28 01:01:59;;;;;;;21.23;10.60;;;;;;;6.14;74.18;102453.16;5050240;28;20021;-85
2022/03/28 01:04:24;;;;;;;18.13;10.40;;;;;;;6.14;74.18;102438.19;5050752;28;20037;-85
2022/03/28 01:06:51;;;;;;;23.55;10.95;;;;;;;6.05;74.30;102435.59;5047135;28;20037;-85
2022/03/28 01:09:17;;;;;;;24.25;10.70;;;;;;;6.13;74.11;102440.84;5051610;28;20052;-84
2022/03/28 01:11:44;;;;;;;24.02;10.90;;;;;;;6.11;74.22;102435.59;5052368;28;20414;-85
2022/03/28 01:14:10;;;;;;;23.42;11.73;;;;;;;6.12;74.05;102433.81;5051824;28;20142;-85
2022/03/28 01:18:05;;;;;;;24.83;11.50;;;;;;;6.11;74.25;102427.66;5050710;28;20032;-84
2022/03/28 01:19:23;;;;;;;21.95;11.73;;;;;;;6.11;73.65;102422.38;5050179;28;20037;-85
2022/03/28 01:21:49;;;;;;;24.35;11.57;;;;;;;6.11;73.87;102419.72;5046906;28;20501;-85
2022/03/28 01:24:14;;;;;;;29.08;11.90;;;;;;;6.05;74.21;102411.81;5050255;28;20033;-85
2022/03/28 01:26:40;;;;;;;26.15;11.65;;;;;;;6.11;74.23;102414.44;5046868;28;20031;-84
2022/03/28 01:29:06;;;;;;;29.50;12.63;;;;;;;6.10;74.19;102414.44;5045581;28;20470;-85
2022/03/28 01:31:31;;;;;;;22.52;11.23;;;;;;;6.10;74.08;102415.31;5047813;28;20104;-85
2022/03/28 01:33:57;;;;;;;23.42;10.93;;;;;;;6.01;74.24;102403.94;5048933;28;20096;-86
2022/03/28 01:36:25;;;;;;;25.77;12.18;;;;;;;6.04;73.90;102406.56;5050536;28;20037;-85
2022/03/28 01:38:50;;;;;;;29.08;12.18;;;;;;;5.94;74.15;102392.53;5042750;28;20088;-86
2022/03/28 01:41:15;;;;;;;28.55;12.13;;;;;;;5.95;74.07;102396.94;5066425;28;20021;-86
2022/03/28 01:43:41;;;;;;;24.02;11.75;;;;;;;5.94;74.12;102395.19;5059713;28;20052;-86
2022/03/28 01:46:06;;;;;;;20.80;10.70;;;;;;;5.89;74.36;102392.50;5064718;28;20130;-84
2022/03/28 01:48:32;;;;;;;24.27;11.30;;;;;;;5.90;74.25;102401.34;5047546;28;20048;-85
2022/03/28 01:50:57;;;;;;;20.60;11.85;;;;;;;5.88;74.06;102396.03;5058955;28;20020;-84
2022/03/28 01:53:23;;;;;;;24.60;12.30;;;;;;;5.87;74.22;102396.94;5056334;28;20668;-85
2022/03/28 01:55:48;;;;;;;21.58;11.77;;;;;;;5.80;74.15;102389.06;5053728;28;20029;-85
2022/03/28 01:58:13;;;;;;;23.38;11.98;;;;;;;5.79;74.51;102404.03;5054030;28;20063;-85
2022/03/28 02:00:39;;;;;;;27.45;11.90;;;;;;;5.71;74.36;102395.28;5052168;28;20099;-84
2022/03/28 02:03:04;;;;;;;22.35;11.38;;;;;;;5.68;74.70;102393.53;5059604;28;20021;-85
2022/03/28 02:05:29;;;;;;;23.50;11.38;;;;;;;5.65;75.27;102403.25;5061627;28;20082;-85
2022/03/28 02:07:54;;;;;;;20.42;10.65;;;;;;;5.54;75.66;102387.44;5035931;28;20036;-86
2022/03/28 02:10:21;;;;;;;19.10;10.63;;;;;;;5.48;75.72;102383.09;5051564;28;20037;-85
2022/03/28 02:12:47;;;;;;;21.17;10.95;;;;;;;5.46;75.56;102392.75;5051206;28;20400;-85
2022/03/28 02:15:12;;;;;;;24.92;11.70;;;;;;;5.40;75.87;102384.88;5047664;28;20082;-86
2022/03/28 02:17:39;;;;;;;17.90;10.63;;;;;;;5.45;75.92;102384.88;5042545;28;20040;-85
2022/03/28 02:20:06;;;;;;;26.25;11.45;;;;;;;5.34;76.85;102378.75;5056832;28;20037;-85
2022/03/28 02:22:33;;;;;;;21.60;10.68;;;;;;;5.38;76.49;102381.34;5045093;28;20023;-85
2022/03/28 02:24:58;;;;;;;27.52;11.45;;;;;;;5.35;76.65;102372.56;5041168;28;20025;-85
2022/03/28 02:27:24;;;;;;;20.98;11.07;;;;;;;5.32;76.32;102372.59;5040333;28;20507;-85
2022/03/28 02:29:49;;;;;;;21.33;11.07;;;;;;;5.22;76.45;102350.63;5051377;28;20067;-85
2022/03/28 02:32:14;;;;;;;23.52;10.88;;;;;;;5.30;76.68;102366.44;5051058;28;20283;-85
2022/03/28 02:34:40;;;;;;;26.27;11.57;;;;;;;5.24;77.08;102354.16;5038908;28;20459;-85
2022/03/28 02:37:05;;;;;;;28.25;12.38;;;;;;;5.28;77.01;102369.09;5047631;28;20017;-84
2022/03/28 02:39:31;;;;;;;31.02;12.75;;;;;;;5.31;77.02;102361.19;5051342;28;20383;-85
2022/03/28 02:41:56;;;;;;;29.55;11.77;;;;;;;5.31;77.99;102349.72;5055334;28;20029;-85
2022/03/28 02:44:21;;;;;;;33.38;13.10;;;;;;;5.27;77.50;102354.16;5051624;28;20037;-85
2022/03/28 02:46:47;;;;;;;23.05;11.85;;;;;;;5.28;77.73;102355.91;5051205;28;20053;-85
2022/03/28 02:49:13;;;;;;;26.15;12.57;;;;;;;5.24;78.60;102357.69;5050186;28;20079;-85
2022/03/28 02:51:39;;;;;;;26.75;12.20;;;;;;;5.23;78.13;102347.13;5050099;28;20028;-84
2022/03/28 02:54:05;;;;;;;29.30;13.32;;;;;;;5.21;78.33;102346.25;5040104;28;20026;-85
2022/03/28 02:56:30;;;;;;;25.25;12.63;;;;;;;5.19;77.93;102346.25;5047169;28;20063;-85
2022/03/28 02:58:55;;;;;;;23.35;12.02;;;;;;;5.17;77.65;102331.31;5047547;28;20037;-85
2022/03/28 03:01:20;;;;;;;24.90;11.88;;;;;;;5.19;78.11;102340.97;5048896;28;20037;-85
2022/03/28 03:03:46;;;;;;;23.65;12.02;;;;;;;5.15;77.96;102338.38;5047242;28;20033;-86
2022/03/28 03:06:11;;;;;;;28.13;12.23;;;;;;;5.12;77.91;102335.72;5041322;28;20033;-85
2022/03/28 03:08:36;;;;;;;25.45;12.07;;;;;;;5.07;77.93;102333.13;5050025;28;20025;-85
2022/03/28 03:11:01;;;;;;;25.42;12.52;;;;;;;5.09;77.69;102335.75;5051962;28;20453;-85
2022/03/28 03:13:27;;;;;;;24.65;11.15;;;;;;;5.04;77.72;102333.13;5048623;28;20025;-85
2022/03/28 03:15:52;;;;;;;28.38;12.48;;;;;;;5.04;77.56;102326.97;5049647;28;20661;-85
2022/03/28 03:18:17;;;;;;;23.23;11.60;;;;;;;5.01;77.78;102333.13;5051574;28;20025;-85
2022/03/28 03:20:43;;;;;;;25.17;11.25;;;;;;;4.96;77.94;102325.22;5055666;28;20044;-84
2022/03/28 03:23:08;;;;;;;23.92;11.55;;;;;;;4.93;77.44;102320.00;5062685;28;20009;-85
2022/03/28 03:25:34;;;;;;;28.65;11.40;;;;;;;4.89;78.17;102317.34;5064266;28;20035;-84
2022/03/28 03:27:59;;;;;;;29.83;12.10;;;;;;;4.84;78.09;102316.50;5066871;28;20026;-84
2022/03/28 03:30:24;;;;;;;26.00;12.35;;;;;;;4.85;78.45;102318.22;5053787;28;20486;-84
2022/03/28 03:32:49;;;;;;;24.33;11.38;;;;;;;4.78;78.39;102319.16;5050054;28;20025;-85
2022/03/28 03:35:15;;;;;;;27.23;12.63;;;;;;;4.79;78.43;102320.91;5042488;28;20429;-85
2022/03/28 03:37:40;;;;;;;29.27;12.70;;;;;;;4.73;78.43;102312.13;5046827;28;20057;-85
2022/03/28 03:40:07;;;;;;;26.42;12.10;;;;;;;4.72;78.68;102314.75;5043623;28;20025;-85
2022/03/28 03:42:33;;;;;;;24.27;11.50;;;;;;;4.71;78.35;102318.28;5049945;28;20183;-84
2022/03/28 03:44:59;;;;;;;23.23;11.35;;;;;;;4.61;78.66;102301.63;5047604;28;20390;-84
2022/03/28 03:47:25;;;;;;;24.13;11.93;;;;;;;4.64;78.45;102319.19;5046844;28;20033;-84
2022/03/28 03:49:51;;;;;;;26.33;12.10;;;;;;;4.59;78.81;102294.59;5050874;28;20033;-84
2022/03/28 03:52:16;;;;;;;23.77;11.55;;;;;;;4.58;78.95;102301.63;5052357;28;20025;-84
2022/03/28 03:54:42;;;;;;;24.30;11.38;;;;;;;4.54;78.89;102284.06;5038114;28;20029;-85
2022/03/28 03:57:07;;;;;;;25.25;11.68;;;;;;;4.53;79.17;102286.72;5044646;28;20025;-85
2022/03/28 03:59:33;;;;;;;24.05;11.95;;;;;;;4.48;79.07;102292.00;5038130;28;20026;-84
2022/03/28 04:01:58;;;;;;;25.70;11.98;;;;;;;4.45;78.88;102284.97;5044549;28;20025;-84
2022/03/28 04:04:23;;;;;;;27.85;12.45;;;;;;;4.44;79.36;102287.63;5048894;28;20478;-84
2022/03/28 04:06:49;;;;;;;28.52;12.93;;;;;;;4.38;80.31;102277.94;5043362;28;20091;-84
2022/03/28 04:09:14;;;;;;;26.20;12.43;;;;;;;4.30;79.97;102266.53;5047630;28;20025;-84
2022/03/28 04:11:39;;;;;;;29.08;12.38;;;;;;;4.35;80.01;102277.97;5048637;28;20013;-85
2022/03/28 04:14:05;;;;;;;32.95;12.80;;;;;;;4.31;80.02;102270.94;5039672;28;20025;-84
2022/03/28 04:16:30;;;;;;;25.15;11.38;;;;;;;4.30;80.61;102284.13;5043657;28;20044;-84
2022/03/28 04:18:55;;;;;;;25.92;11.25;;;;;;;4.22;80.05;102273.56;5046061;28;20099;-84
2022/03/28 04:21:20;;;;;;;25.80;11.90;;;;;;;4.21;80.00;102266.56;5057255;28;20025;-84
2022/03/28 04:23:46;;;;;;;22.58;12.18;;;;;;;4.15;80.85;102267.47;5065182;28;20026;-84
2022/03/28 04:26:11;;;;;;;26.75;12.68;;;;;;;4.14;80.60;102267.44;5050887;28;20474;-85
2022/03/28 04:28:37;;;;;;;29.35;13.13;;;;;;;4.18;81.35;102275.38;5044818;28;20127;-85
2022/03/28 04:31:02;;;;;;;31.77;13.85;;;;;;;4.14;82.08;102268.34;5047655;28;20030;-84
2022/03/28 04:33:28;;;;;;;23.33;13.65;;;;;;;4.13;81.18;102265.69;5050815;28;20020;-85
2022/03/28 04:35:53;;;;;;;30.08;12.80;;;;;;;4.11;80.80;102267.47;5051179;28;20036;-84
2022/03/28 04:38:19;;;;;;;26.13;12.75;;;;;;;3.99;81.27;102273.63;5038848;28;20402;-84
2022/03/28 04:40:45;;;;;;;29.10;12.60;;;;;;;3.91;81.81;102286.78;5052471;28;20036;-84
2022/03/28 04:43:10;;;;;;;25.25;11.98;;;;;;;3.84;82.15;102278.88;5048714;28;20115;-85
2022/03/28 04:45:35;;;;;;;24.42;12.52;;;;;;;3.82;82.80;102270.13;5049891;28;20075;-84
2022/03/28 04:48:01;;;;;;;31.77;13.40;;;;;;;3.85;82.71;102276.28;5067516;28;20036;-84
2022/03/28 04:50:27;;;;;;;27.10;12.30;;;;;;;3.85;82.73;102284.19;5047488;28;20306;-84
2022/03/28 04:52:53;;;;;;;31.10;12.85;;;;;;;3.80;82.64;102271.88;5054020;28;20123;-84
2022/03/28 04:55:18;;;;;;;27.88;13.00;;;;;;;3.81;82.62;102282.41;5051968;28;20417;-85
2022/03/28 04:57:44;;;;;;;24.20;12.00;;;;;;;3.81;82.44;102278.91;5052573;28;20036;-85
2022/03/28 05:00:10;;;;;;;28.10;13.05;;;;;;;3.77;82.32;102274.53;5053512;28;20473;-85
2022/03/28 05:02:36;;;;;;;24.95;11.52;;;;;;;3.80;82.02;102283.28;5057503;28;20039;-85
2022/03/28 05:05:06;;;;;;;28.17;13.50;;;;;;;3.69;83.24;102267.47;5058434;28;20061;-85
2022/03/28 05:07:32;;;;;;;30.17;13.07;;;;;;;3.72;83.28;102280.66;5051857;28;20116;-85
2022/03/28 05:09:59;;;;;;;36.00;13.90;;;;;;;3.69;83.87;102275.38;5056500;28;20577;-85
2022/03/28 05:12:25;;;;;;;27.70;13.25;;;;;;;3.70;83.87;102282.41;5061045;28;21289;-84
2022/03/28 05:14:51;;;;;;;25.50;13.43;;;;;;;3.69;83.79;102275.38;5052344;28;20024;-85
2022/03/28 05:17:24;;;;;;;25.63;13.73;;;;;;;3.69;83.82;102272.75;5053447;28;20032;-84
2022/03/28 05:19:50;;;;;;;32.20;13.77;;;;;;;3.66;83.74;102277.13;5051948;28;20037;-83
2022/03/28 05:22:15;;;;;;;27.73;13.93;;;;;;;3.65;84.54;102273.63;5064360;28;20060;-84
2022/03/28 05:24:41;;;;;;;33.50;14.48;;;;;;;3.62;84.74;102270.97;5050847;28;20032;-85
2022/03/28 05:27:07;;;;;;;29.73;13.73;;;;;;;3.61;84.02;102266.59;5052255;28;20569;-85
2022/03/28 05:29:32;;;;;;;26.90;13.52;;;;;;;3.61;83.64;102266.59;5052553;28;20016;-84
2022/03/28 05:31:57;;;;;;;25.65;12.90;;;;;;;3.63;83.58;102279.75;5055684;28;20308;-85
2022/03/28 05:34:23;;;;;;;31.67;14.02;;;;;;;3.61;84.42;102277.13;5048452;28;20025;-85
2022/03/28 05:36:48;;;;;;;29.70;13.75;;;;;;;3.61;84.53;102269.22;5048091;28;20017;-84
2022/03/28 05:39:14;;;;;;;32.70;15.23;;;;;;;3.60;84.28;102270.13;5052167;28;20146;-84
2022/03/28 05:41:40;;;;;;;43.85;17.60;;;;;;;3.62;84.51;102272.75;5051607;28;20033;-85
2022/03/28 05:44:06;;;;;;;31.63;13.13;;;;;;;3.60;84.75;102270.13;5047769;28;20616;-84
2022/03/28 05:46:31;;;;;;;29.80;13.98;;;;;;;3.64;85.56;102273.63;5049503;28;20068;-84
2022/03/28 05:48:56;;;;;;;34.25;14.68;;;;;;;3.64;85.75;102271.88;5051665;28;20482;-84
2022/03/28 05:51:22;;;;;;;33.10;13.60;;;;;;;3.70;85.45;102266.59;5050258;28;20045;-84
2022/03/28 05:53:47;;;;;;;34.60;14.05;;;;;;;3.68;85.63;102256.97;5048601;28;20449;-85
2022/03/28 05:56:13;;;;;;;35.22;13.88;;;;;;;3.75;86.10;102270.09;5048922;28;20036;-85
2022/03/28 05:58:38;;;;;;;32.72;14.93;;;;;;;3.73;86.34;102268.38;5047652;28;20066;-84
2022/03/28 06:01:03;;;;;;;31.05;13.05;;;;;;;3.79;87.01;102259.59;5051576;28;20111;-83
2022/03/28 06:03:29;;;;;;;34.63;15.18;;;;;;;3.83;87.01;102267.47;5048326;28;20013;-84
2022/03/28 06:05:54;;;;;;;41.17;14.93;;;;;;;3.89;87.60;102261.34;5048747;28;20493;-84
2022/03/28 06:08:21;;;;;;;35.65;14.75;;;;;;;3.90;87.88;102261.34;5047834;28;20486;-84
2022/03/28 06:10:47;;;;;;;36.70;15.05;;;;;;;3.88;87.97;102249.03;5051930;28;20032;-84
2022/03/28 06:13:12;;;;;;;29.58;13.27;;;;;;;3.98;88.07;102261.34;5050922;28;20029;-84
2022/03/28 06:15:38;;;;;;;39.55;14.77;;;;;;;3.97;88.37;102254.28;5048627;28;20056;-83
2022/03/28 06:18:04;;;;;;;37.05;15.80;;;;;;;4.01;88.64;102256.03;5053429;28;20060;-84
2022/03/28 06:20:30;;;;;;;38.40;16.10;;;;;;;4.10;88.83;102263.97;5048713;28;20049;-84
2022/03/28 06:22:55;;;;;;;31.33;14.30;;;;;;;4.10;88.61;102245.50;5050913;28;20027;-85
2022/03/28 06:25:22;;;;;;;32.13;14.85;;;;;;;4.27;88.89;102249.88;5049770;28;20053;-85
2022/03/28 06:27:48;;;;;;;33.95;15.63;;;;;;;4.41;88.74;102242.78;5048865;28;20018;-85
2022/03/28 06:30:13;;;;;;;36.08;15.65;;;;;;;4.60;88.46;102246.22;5053946;28;20025;-84
2022/03/28 06:32:39;;;;;;;35.90;15.73;;;;;;;4.72;88.03;102238.28;5051336;28;20032;-85
2022/03/28 06:35:07;;;;;;;38.53;15.80;;;;;;;4.90;87.06;102243.47;5057544;28;20470;-84
2022/03/28 06:37:33;;;;;;;35.88;15.18;;;;;;;5.10;86.58;102242.47;5048349;28;20029;-85
2022/03/28 06:39:58;;;;;;;35.72;15.45;;;;;;;5.24;86.59;102246.81;5052313;28;20029;-85
2022/03/28 06:42:24;;;;;;;34.95;14.63;;;;;;;5.49;85.21;102246.63;5050490;28;20045;-85
2022/03/28 06:44:49;;;;;;;32.47;14.32;;;;;;;5.63;85.02;102249.16;5054877;28;20529;-86
2022/03/28 06:47:15;;;;;;;32.13;14.65;;;;;;;5.77;84.43;102252.59;5052502;28;20048;-85
2022/03/28 06:49:40;;;;;;;32.60;14.00;;;;;;;5.93;83.78;102248.06;5053180;28;20023;-84
2022/03/28 06:52:05;;;;;;;31.10;13.13;;;;;;;6.11;82.91;102249.66;5050900;28;20037;-85
2022/03/28 06:54:31;;;;;;;34.55;13.40;;;;;;;6.27;82.48;102245.97;5051553;28;20032;-86
2022/03/28 06:56:56;;;;;;;28.83;13.27;;;;;;;6.47;81.18;102241.31;5057024;28;20021;-84
2022/03/28 06:59:23;;;;;;;28.70;13.45;;;;;;;6.66;80.67;102242.00;5051289;28;20055;-89
2022/03/28 07:01:49;;;;;;;33.60;13.32;;;;;;;6.83;79.58;102244.41;5056403;28;20032;-84
2022/03/28 07:04:14;;;;;;;36.15;13.23;;;;;;;7.02;79.19;102241.50;5056008;28;20029;-86
2022/03/28 07:06:40;;;;;;;31.50;12.85;;;;;;;7.18;78.13;102235.09;5036137;28;20029;-88
2022/03/28 07:09:05;;;;;;;27.75;12.65;;;;;;;7.29;77.62;102237.63;5055385;28;20025;-86
2022/03/28 07:11:34;;;;;;;29.10;12.95;;;;;;;7.51;76.99;102235.50;5073440;28;20025;-85
2022/03/28 07:13:59;;;;;;;27.63;13.60;;;;;;;7.72;76.18;102229.84;5048209;28;20478;-87
2022/03/28 07:16:25;;;;;;;31.45;12.88;;;;;;;7.91;75.18;102227.75;5054884;28;20059;-86
2022/03/28 07:18:50;;;;;;;27.92;12.30;;;;;;;8.06;74.71;102216.84;5058764;28;20033;-86
2022/03/28 07:21:15;;;;;;;29.23;12.88;;;;;;;8.29;74.29;102212.91;5056989;28;20032;-88
2022/03/28 07:23:42;;;;;;;24.92;12.88;;;;;;;8.59;73.50;102222.94;5051487;28;20029;-87
2022/03/28 07:26:08;;;;;;;34.63;14.77;;;;;;;8.79;72.11;102216.34;5053408;28;20024;-88
2022/03/28 07:28:35;;;;;;;32.72;13.93;;;;;;;9.00;71.72;102218.53;5068683;28;20039;-87
2022/03/28 07:31:01;;;;;;;28.90;12.38;;;;;;;9.23;70.93;102216.19;5061069;28;20036;-88
2022/03/28 07:33:26;;;;;;;28.95;13.20;;;;;;;9.46;69.84;102202.38;5055171;28;20032;-87
2022/03/28 07:35:52;;;;;;;33.45;14.38;;;;;;;9.78;69.06;102218.41;5034968;28;20036;-88
2022/03/28 07:38:18;;;;;;;29.63;13.48;;;;;;;10.03;68.04;102211.53;5062066;28;20024;-87
2022/03/28 07:40:45;;;;;;;27.13;13.85;;;;;;;10.32;67.09;102194.81;5065622;28;20020;-88
2022/03/28 07:43:11;;;;;;;30.83;13.73;;;;;;;10.64;65.54;102206.34;5048247;28;20021;-83
2022/03/28 07:45:36;;;;;;;32.97;13.70;;;;;;;10.81;64.88;102188.06;5052313;28;20136;-87
2022/03/28 07:48:02;;;;;;;29.38;13.27;;;;;;;11.06;63.69;102192.63;5069283;28;20031;-87
2022/03/28 07:50:28;;;;;;;33.65;14.05;;;;;;;11.02;63.44;102186.53;5052840;28;20134;-87
2022/03/28 07:52:53;;;;;;;30.48;13.38;;;;;;;11.04;63.55;102178.50;5050091;28;20495;-87
2022/03/28 07:55:19;;;;;;;35.05;15.40;;;;;;;11.36;63.23;102183.66;5049240;28;20063;-88
2022/03/28 07:57:45;;;;;;;29.40;15.05;;;;;;;11.67;61.82;102185.31;5051881;28;20024;-87
2022/03/28 08:00:14;;;;;;;31.85;13.95;;;;;;;12.11;60.72;102182.91;5053420;28;20047;-87
2022/03/28 08:02:40;;;;;;;30.08;14.52;;;;;;;12.38;59.30;102173.03;5050606;28;20051;-87
2022/03/28 08:05:07;;;;;;;30.77;14.48;;;;;;;12.63;58.56;102170.31;5050737;28;20498;-87
2022/03/28 08:07:32;;;;;;;31.75;14.55;;;;;;;13.11;57.42;102188.88;5053987;28;20033;-86
2022/03/28 08:09:58;;;;;;;31.13;14.90;;;;;;;13.45;56.00;102177.69;5052400;28;20078;-87
2022/03/28 08:12:23;;;;;;;31.08;15.30;;;;;;;13.77;55.44;102163.91;5043469;28;20117;-87
2022/03/28 08:14:50;;;;;;;30.58;15.23;;;;;;;14.28;54.36;102167.88;5053787;28;20081;-88
2022/03/28 08:17:17;;;;;;;32.92;15.65;;;;;;;14.60;52.83;102164.63;5054571;28;20528;-87
2022/03/28 08:19:42;;;;;;;31.55;14.82;;;;;;;14.93;52.55;102166.66;5050882;28;20029;-86
2022/03/28 08:22:08;;;;;;;31.80;14.45;;;;;;;15.32;50.70;102158.47;5061262;28;20033;-87
2022/03/28 08:24:33;;;;;;;33.63;14.43;;;;;;;15.66;50.16;102143.38;5062572;28;20020;-88
2022/03/28 08:26:59;;;;;;;25.90;14.45;;;;;;;16.04;48.67;102143.19;5054682;28;20036;-89
2022/03/28 08:29:24;;;;;;;27.42;15.50;;;;;;;16.51;47.73;102151.38;5058334;28;20021;-90
2022/03/28 08:31:49;;;;;;;30.65;15.73;;;;;;;16.82;46.34;102149.69;5047410;28;20069;-93
2022/03/28 08:34:14;;;;;;;32.40;16.05;;;;;;;17.06;45.79;102153.69;5056697;28;20039;-93
2022/03/28 08:36:40;;;;;;;32.38;15.55;;;;;;;17.40;45.09;102160.66;5073731;28;20362;-89
2022/03/28 08:39:06;;;;;;;32.10;17.10;;;;;;;17.62;43.90;102149.47;5054855;28;20052;-93
2022/03/28 08:41:32;;;;;;;31.08;16.77;;;;;;;17.90;42.69;102145.16;5055376;28;20036;-90
2022/03/28 08:43:58;;;;;;;31.85;17.25;;;;;;;18.16;42.81;102146.25;5055664;28;20051;-93
2022/03/28 08:46:24;;;;;;;31.17;15.85;;;;;;;18.50;42.34;102149.50;5060216;28;20075;-94
2022/03/28 08:48:52;;;;;;;27.45;15.30;;;;;;;19.03;41.67;102150.59;5056619;28;20025;-94
2022/03/28 08:51:19;;;;;;;32.38;18.20;;;;;;;19.68;40.35;102145.31;5063323;28;20108;-93
2022/03/28 08:53:45;;;;;;;34.60;18.33;;;;;;;20.27;38.57;102142.97;5054930;28;20120;-93
2022/03/28 08:56:10;;;;;;;31.77;16.77;;;;;;;20.57;37.61;102136.38;5058184;28;20490;-93
2022/03/28 08:58:36;;;;;;;29.75;17.33;;;;;;;20.78;37.14;102133.97;5063985;28;20063;-93
2022/03/28 09:01:03;;;;;;;28.38;16.88;;;;;;;21.14;36.48;102135.75;5071165;28;20039;-93
2022/03/28 09:03:47;;;;;;;31.63;15.93;;;;;;;21.60;37.84;102127.72;5072030;28;20028;-93
2022/03/28 09:06:36;;;;;;;29.85;15.57;;;;;;;22.09;37.49;102129.31;5062392;28;20035;-94
2022/03/28 09:09:27;;;;;;;30.98;15.70;;;;;;;22.60;36.90;102136.13;5063680;28;20041;-93
2022/03/28 09:11:58;;;;;;;28.23;16.08;;;;;;;22.87;33.93;102131.16;5054678;28;20021;-94
2022/03/28 09:14:37;;;;;;;32.78;17.05;;;;;;;22.76;33.80;102128.44;5056002;28;20446;-93
2022/03/28 09:17:21;;;;;;;29.83;16.67;;;;;;;22.35;35.52;102124.53;5056895;28;20033;-93
2022/03/28 09:19:55;;;;;;;33.65;19.27;;;;;;;22.10;34.48;102119.31;5056414;28;20062;-93
2022/03/28 09:22:23;;;;;;;30.35;17.40;;;;;;;22.62;33.61;102126.00;5067607;28;20048;-93
2022/03/28 09:24:50;;;;;;;32.00;18.48;;;;;;;23.29;31.92;102125.00;5061604;28;20028;-93
2022/03/28 09:27:25;;;;;;;33.03;18.20;;;;;;;23.94;32.59;102118.47;5072678;28;20027;-93
2022/03/28 09:30:00;;;;;;;30.73;17.70;;;;;;;24.26;31.28;102123.81;5078273;28;20063;-93
2022/03/28 09:32:28;;;;;;;32.90;18.27;;;;;;;24.57;29.79;102123.81;5074801;28;20349;-93
2022/03/28 09:35:01;;;;;;;27.63;18.02;;;;;;;24.87;30.35;102124.75;5056132;28;20045;-93
2022/03/28 09:37:28;;;;;;;33.22;18.73;;;;;;;25.16;29.17;102127.53;5056889;28;20451;-93
2022/03/28 09:39:53;;;;;;;31.42;17.95;;;;;;;25.40;28.24;102121.69;5052548;28;20237;-91
2022/03/28 09:42:19;;;;;;;27.48;17.65;;;;;;;25.75;28.16;102110.16;5054145;28;20091;-89
2022/03/28 09:44:48;;;;;;;30.80;19.05;;;;;;;25.96;27.34;102108.16;5055462;28;20040;-92
2022/03/28 09:47:19;;;;;;;31.58;18.50;;;;;;;26.34;26.70;102106.28;5052225;28;20048;-91
2022/03/28 09:49:49;;;;;;;28.98;17.77;;;;;;;26.93;26.32;102112.31;5053820;28;20074;-91
2022/03/28 09:52:25;;;;;;;30.92;19.27;;;;;;;27.04;26.04;102103.84;5060841;28;20021;-90
2022/03/28 09:54:54;;;;;;;31.15;19.92;;;;;;;27.07;25.51;102096.22;5061954;28;20071;-89
2022/03/28 09:57:27;;;;;;;31.17;19.92;;;;;;;27.00;25.21;102108.75;5070129;28;20037;-89
2022/03/28 10:00:07;;;;;;;36.08;20.30;;;;;;;27.24;25.69;102100.00;5050821;28;20044;-89
2022/03/28 10:02:35;;;;;;;31.52;20.10;;;;;;;27.26;25.34;102106.19;5032613;28;20086;-90
2022/03/28 10:05:01;;;;;;;30.98;20.02;;;;;;;27.09;25.90;102104.28;5051506;28;20021;-90
2022/03/28 10:07:27;;;;;;;30.65;20.38;;;;;;;27.10;25.55;102100.56;5049079;28;20029;-89
2022/03/28 10:09:53;;;;;;;34.92;21.30;;;;;;;27.13;25.37;102092.03;5052068;28;20034;-89
2022/03/28 10:12:20;;;;;;;32.50;20.13;;;;;;;27.24;24.97;102094.53;5059696;28;20028;-89
2022/03/28 10:14:57;;;;;;;32.90;20.25;;;;;;;27.21;25.78;102102.16;5067657;28;20025;-90
2022/03/28 10:17:24;;;;;;;30.83;19.20;;;;;;;27.22;24.87;102099.31;5065207;28;20039;-89
2022/03/28 10:19:50;;;;;;;27.33;18.42;;;;;;;27.88;24.67;102087.00;5061622;28;20108;-89
2022/03/28 10:22:18;;;;;;;32.63;20.33;;;;;;;27.95;24.00;102081.75;5061438;28;20056;-90
2022/03/28 10:24:45;;;;;;;30.90;18.88;;;;;;;28.36;24.17;102090.22;5055687;28;20037;-91
2022/03/28 10:27:12;;;;;;;30.88;19.63;;;;;;;27.48;24.32;102071.16;5052972;28;20509;-91
2022/03/28 10:29:40;;;;;;;30.20;18.77;;;;;;;27.43;24.45;102060.69;5056361;28;20455;-89
2022/03/28 10:32:16;;;;;;;30.58;20.10;;;;;;;28.12;24.96;102066.28;5051121;28;20067;-90
2022/03/28 10:34:49;;;;;;;33.30;20.35;;;;;;;28.09;23.71;102061.13;5052845;28;20033;-90
2022/03/28 10:37:35;;;;;;;32.42;20.25;;;;;;;28.12;24.63;102058.06;5065623;28;20025;-89
2022/03/28 10:40:21;;;;;;;30.92;19.38;;;;;;;28.54;24.40;102058.09;5055633;28;20039;-90
2022/03/28 10:43:06;;;;;;;32.40;20.30;;;;;;;28.91;23.46;102051.31;5052048;28;20025;-90
2022/03/28 10:45:37;;;;;;;29.55;19.02;;;;;;;28.82;22.76;102042.25;5056730;28;20119;-90
2022/03/28 10:48:05;;;;;;;29.67;19.23;;;;;;;29.12;22.08;102043.50;5068049;28;20223;-90
2022/03/28 10:50:32;;;;;;;31.38;20.48;;;;;;;28.78;22.52;102038.97;5056749;28;20098;-91
2022/03/28 10:53:08;;;;;;;29.75;19.45;;;;;;;29.38;22.93;102035.06;5057405;28;20042;-92
2022/03/28 10:55:51;;;;;;;31.92;19.40;;;;;;;29.37;21.69;102029.78;5053442;28;20036;-92
2022/03/28 10:58:24;;;;;;;31.23;19.92;;;;;;;29.22;21.60;102033.22;5051309;28;20090;-90
2022/03/28 11:01:07;;;;;;;31.88;20.02;;;;;;;29.77;22.91;102032.50;5054730;28;20124;-89
2022/03/28 11:03:38;;;;;;;31.15;19.67;;;;;;;29.88;21.63;102024.91;5046929;28;20160;-90
2022/03/28 11:06:05;;;;;;;34.80;22.10;;;;;;;29.37;21.51;102036.13;5047941;28;20458;-90
2022/03/28 11:08:34;;;;;;;30.70;20.55;;;;;;;29.81;21.04;102038.47;5048034;28;20036;-90
2022/03/28 11:11:36;;;;;;;32.47;20.25;;;;;;;30.84;21.76;102032.00;5054396;28;20138;-90
2022/03/28 11:14:09;;;;;;;35.88;23.05;;;;;;;31.12;20.38;102035.06;4971734;28;20561;-90